sensor_id;sensor_type;location;lat;lon;timestamp;P1;durP1;ratioP1;P2;durP2;ratioP2
82787;SDS011;72529;51.786;4.662;2024-02-26T00:01:25;5.94;;;5.94;;
82787;SDS011;72529;51.786;4.662;2024-02-26T00:03:51;5.91;;;5.91;;
82787;SDS011;72529;51.786;4.662;2024-02-26T00:06:17;5.56;;;5.56;;
82787;SDS011;72529;51.786;4.662;2024-02-26T00:08:43;5.57;;;5.57;;
82787;SDS011;72529;51.786;4.662;2024-02-26T00:11:09;5.51;;;5.51;;
82787;SDS011;72529;51.786;4.662;2024-02-26T00:13:35;5.64;;;5.64;;
82787;SDS011;72529;51.786;4.662;2024-02-26T00:16:01;5.79;;;5.79;;
82787;SDS011;72529;51.786;4.662;2024-02-26T00:18:27;5.72;;;5.72;;
82787;SDS011;72529;51.786;4.662;2024-02-26T00:20:52;5.48;;;5.48;;
82787;SDS011;72529;51.786;4.662;2024-02-26T00:23:18;5.44;;;5.44;;
82787;SDS011;72529;51.786;4.662;2024-02-26T00:25:43;5.62;;;5.62;;
82787;SDS011;72529;51.786;4.662;2024-02-26T00:28:10;5.21;;;5.21;;
82787;SDS011;72529;51.786;4.662;2024-02-26T00:30:35;5.94;;;5.94;;
82787;SDS011;72529;51.786;4.662;2024-02-26T00:33:01;5.93;;;5.93;;
82787;SDS011;72529;51.786;4.662;2024-02-26T00:35:27;5.51;;;5.51;;
82787;SDS011;72529;51.786;4.662;2024-02-26T00:37:52;5.79;;;5.79;;
82787;SDS011;72529;51.786;4.662;2024-02-26T00:40:18;5.70;;;5.70;;
82787;SDS011;72529;51.786;4.662;2024-02-26T00:42:43;5.63;;;5.63;;
82787;SDS011;72529;51.786;4.662;2024-02-26T00:45:14;6.07;;;6.07;;
82787;SDS011;72529;51.786;4.662;2024-02-26T00:47:41;5.31;;;5.31;;
82787;SDS011;72529;51.786;4.662;2024-02-26T00:50:06;5.37;;;5.37;;
82787;SDS011;72529;51.786;4.662;2024-02-26T00:52:33;5.96;;;5.96;;
82787;SDS011;72529;51.786;4.662;2024-02-26T00:54:59;5.88;;;5.88;;
82787;SDS011;72529;51.786;4.662;2024-02-26T00:57:25;5.48;;;5.48;;
82787;SDS011;72529;51.786;4.662;2024-02-26T00:59:50;5.83;;;5.83;;
82787;SDS011;72529;51.786;4.662;2024-02-26T01:02:16;5.73;;;5.73;;
82787;SDS011;72529;51.786;4.662;2024-02-26T01:04:41;5.76;;;5.76;;
82787;SDS011;72529;51.786;4.662;2024-02-26T01:07:06;5.79;;;5.79;;
82787;SDS011;72529;51.786;4.662;2024-02-26T01:09:32;5.48;;;5.48;;
82787;SDS011;72529;51.786;4.662;2024-02-26T01:11:57;5.42;;;5.42;;
82787;SDS011;72529;51.786;4.662;2024-02-26T01:14:23;5.49;;;5.49;;
82787;SDS011;72529;51.786;4.662;2024-02-26T01:16:48;5.60;;;5.60;;
82787;SDS011;72529;51.786;4.662;2024-02-26T01:19:14;5.84;;;5.84;;
82787;SDS011;72529;51.786;4.662;2024-02-26T01:21:40;5.49;;;5.49;;
82787;SDS011;72529;51.786;4.662;2024-02-26T01:24:05;5.34;;;5.34;;
82787;SDS011;72529;51.786;4.662;2024-02-26T01:26:31;5.04;;;5.04;;
82787;SDS011;72529;51.786;4.662;2024-02-26T01:28:56;5.46;;;5.46;;
82787;SDS011;72529;51.786;4.662;2024-02-26T01:31:22;5.36;;;5.36;;
82787;SDS011;72529;51.786;4.662;2024-02-26T01:33:47;5.76;;;5.76;;
82787;SDS011;72529;51.786;4.662;2024-02-26T01:36:12;5.95;;;5.95;;
82787;SDS011;72529;51.786;4.662;2024-02-26T01:38:38;5.93;;;5.93;;
82787;SDS011;72529;51.786;4.662;2024-02-26T01:41:03;5.73;;;5.73;;
82787;SDS011;72529;51.786;4.662;2024-02-26T01:43:29;5.69;;;5.69;;
82787;SDS011;72529;51.786;4.662;2024-02-26T01:45:54;6.00;;;6.00;;
82787;SDS011;72529;51.786;4.662;2024-02-26T01:48:20;6.17;;;6.17;;
82787;SDS011;72529;51.786;4.662;2024-02-26T01:50:46;5.82;;;5.82;;
82787;SDS011;72529;51.786;4.662;2024-02-26T01:53:11;5.93;;;5.93;;
82787;SDS011;72529;51.786;4.662;2024-02-26T01:55:38;5.82;;;5.82;;
82787;SDS011;72529;51.786;4.662;2024-02-26T01:58:04;5.82;;;5.82;;
82787;SDS011;72529;51.786;4.662;2024-02-26T02:00:30;5.91;;;5.91;;
82787;SDS011;72529;51.786;4.662;2024-02-26T02:02:56;5.95;;;5.95;;
82787;SDS011;72529;51.786;4.662;2024-02-26T02:05:22;6.25;;;6.25;;
82787;SDS011;72529;51.786;4.662;2024-02-26T02:07:49;6.09;;;6.09;;
82787;SDS011;72529;51.786;4.662;2024-02-26T02:10:16;5.94;;;5.94;;
82787;SDS011;72529;51.786;4.662;2024-02-26T02:12:43;6.38;;;6.38;;
82787;SDS011;72529;51.786;4.662;2024-02-26T02:15:08;6.33;;;6.33;;
82787;SDS011;72529;51.786;4.662;2024-02-26T02:17:34;6.30;;;6.30;;
82787;SDS011;72529;51.786;4.662;2024-02-26T02:19:59;6.84;;;6.84;;
82787;SDS011;72529;51.786;4.662;2024-02-26T02:22:25;6.98;;;6.97;;
82787;SDS011;72529;51.786;4.662;2024-02-26T02:24:52;6.53;;;6.53;;
82787;SDS011;72529;51.786;4.662;2024-02-26T02:27:18;6.70;;;6.70;;
82787;SDS011;72529;51.786;4.662;2024-02-26T02:29:45;6.85;;;6.85;;
82787;SDS011;72529;51.786;4.662;2024-02-26T02:32:12;7.07;;;7.07;;
82787;SDS011;72529;51.786;4.662;2024-02-26T02:34:39;7.25;;;7.25;;
82787;SDS011;72529;51.786;4.662;2024-02-26T02:37:06;7.45;;;7.45;;
82787;SDS011;72529;51.786;4.662;2024-02-26T02:39:31;7.58;;;7.58;;
82787;SDS011;72529;51.786;4.662;2024-02-26T02:41:57;7.43;;;7.43;;
82787;SDS011;72529;51.786;4.662;2024-02-26T02:44:22;7.91;;;7.91;;
82787;SDS011;72529;51.786;4.662;2024-02-26T02:46:48;7.93;;;7.93;;
82787;SDS011;72529;51.786;4.662;2024-02-26T02:49:13;8.29;;;8.29;;
82787;SDS011;72529;51.786;4.662;2024-02-26T02:51:39;7.79;;;7.79;;
82787;SDS011;72529;51.786;4.662;2024-02-26T02:54:05;8.34;;;8.34;;
82787;SDS011;72529;51.786;4.662;2024-02-26T02:56:30;8.09;;;8.09;;
82787;SDS011;72529;51.786;4.662;2024-02-26T02:58:55;8.28;;;8.28;;
82787;SDS011;72529;51.786;4.662;2024-02-26T03:01:21;7.85;;;7.85;;
82787;SDS011;72529;51.786;4.662;2024-02-26T03:03:46;8.76;;;8.76;;
82787;SDS011;72529;51.786;4.662;2024-02-26T03:06:12;8.37;;;8.37;;
82787;SDS011;72529;51.786;4.662;2024-02-26T03:08:37;8.42;;;8.42;;
82787;SDS011;72529;51.786;4.662;2024-02-26T03:11:03;9.07;;;9.07;;
82787;SDS011;72529;51.786;4.662;2024-02-26T03:13:29;9.02;;;9.02;;
82787;SDS011;72529;51.786;4.662;2024-02-26T03:15:54;8.58;;;8.58;;
82787;SDS011;72529;51.786;4.662;2024-02-26T03:18:20;8.61;;;8.61;;
82787;SDS011;72529;51.786;4.662;2024-02-26T03:20:45;8.93;;;8.93;;
82787;SDS011;72529;51.786;4.662;2024-02-26T03:23:11;8.75;;;8.75;;
82787;SDS011;72529;51.786;4.662;2024-02-26T03:25:41;9.44;;;9.44;;
82787;SDS011;72529;51.786;4.662;2024-02-26T03:28:07;9.53;;;9.53;;
82787;SDS011;72529;51.786;4.662;2024-02-26T03:30:32;9.39;;;9.39;;
82787;SDS011;72529;51.786;4.662;2024-02-26T03:32:57;9.36;;;9.36;;
82787;SDS011;72529;51.786;4.662;2024-02-26T03:35:23;9.70;;;9.70;;
82787;SDS011;72529;51.786;4.662;2024-02-26T03:37:48;9.57;;;9.57;;
82787;SDS011;72529;51.786;4.662;2024-02-26T03:40:15;8.96;;;8.96;;
82787;SDS011;72529;51.786;4.662;2024-02-26T03:42:41;9.53;;;9.53;;
82787;SDS011;72529;51.786;4.662;2024-02-26T03:45:06;9.60;;;9.60;;
82787;SDS011;72529;51.786;4.662;2024-02-26T03:47:32;9.82;;;9.82;;
82787;SDS011;72529;51.786;4.662;2024-02-26T03:49:57;9.97;;;9.97;;
82787;SDS011;72529;51.786;4.662;2024-02-26T03:52:24;9.63;;;9.63;;
82787;SDS011;72529;51.786;4.662;2024-02-26T03:54:50;9.41;;;9.41;;
82787;SDS011;72529;51.786;4.662;2024-02-26T03:57:15;10.22;;;10.22;;
82787;SDS011;72529;51.786;4.662;2024-02-26T03:59:41;9.77;;;9.77;;
82787;SDS011;72529;51.786;4.662;2024-02-26T04:02:06;9.55;;;9.51;;
82787;SDS011;72529;51.786;4.662;2024-02-26T04:04:34;9.43;;;9.43;;
82787;SDS011;72529;51.786;4.662;2024-02-26T04:06:59;10.12;;;10.11;;
82787;SDS011;72529;51.786;4.662;2024-02-26T04:09:25;9.58;;;9.58;;
82787;SDS011;72529;51.786;4.662;2024-02-26T04:11:50;10.51;;;10.51;;
82787;SDS011;72529;51.786;4.662;2024-02-26T04:14:16;10.14;;;10.14;;
82787;SDS011;72529;51.786;4.662;2024-02-26T04:16:41;9.94;;;9.94;;
82787;SDS011;72529;51.786;4.662;2024-02-26T04:19:07;9.84;;;9.84;;
82787;SDS011;72529;51.786;4.662;2024-02-26T04:21:32;9.67;;;9.67;;
82787;SDS011;72529;51.786;4.662;2024-02-26T04:23:58;9.97;;;9.97;;
82787;SDS011;72529;51.786;4.662;2024-02-26T04:26:26;9.92;;;9.92;;
82787;SDS011;72529;51.786;4.662;2024-02-26T04:28:52;10.68;;;10.68;;
82787;SDS011;72529;51.786;4.662;2024-02-26T04:31:18;10.14;;;10.14;;
82787;SDS011;72529;51.786;4.662;2024-02-26T04:33:44;10.30;;;10.25;;
82787;SDS011;72529;51.786;4.662;2024-02-26T04:36:15;10.37;;;10.37;;
82787;SDS011;72529;51.786;4.662;2024-02-26T04:38:42;10.34;;;10.33;;
82787;SDS011;72529;51.786;4.662;2024-02-26T04:41:08;10.61;;;10.51;;
82787;SDS011;72529;51.786;4.662;2024-02-26T04:43:33;10.50;;;10.48;;
82787;SDS011;72529;51.786;4.662;2024-02-26T04:45:59;9.88;;;9.85;;
82787;SDS011;72529;51.786;4.662;2024-02-26T04:48:24;9.81;;;9.80;;
82787;SDS011;72529;51.786;4.662;2024-02-26T04:50:50;10.07;;;10.07;;
82787;SDS011;72529;51.786;4.662;2024-02-26T04:53:15;9.93;;;9.87;;
82787;SDS011;72529;51.786;4.662;2024-02-26T04:55:40;9.78;;;9.73;;
82787;SDS011;72529;51.786;4.662;2024-02-26T04:58:06;10.19;;;10.04;;
82787;SDS011;72529;51.786;4.662;2024-02-26T05:00:31;10.05;;;10.03;;
82787;SDS011;72529;51.786;4.662;2024-02-26T05:02:56;9.51;;;9.51;;
82787;SDS011;72529;51.786;4.662;2024-02-26T05:05:22;9.20;;;9.18;;
82787;SDS011;72529;51.786;4.662;2024-02-26T05:07:47;8.98;;;8.92;;
82787;SDS011;72529;51.786;4.662;2024-02-26T05:10:13;8.92;;;8.92;;
82787;SDS011;72529;51.786;4.662;2024-02-26T05:12:38;9.28;;;9.28;;
82787;SDS011;72529;51.786;4.662;2024-02-26T05:15:04;9.47;;;9.47;;
82787;SDS011;72529;51.786;4.662;2024-02-26T05:17:30;9.40;;;9.40;;
82787;SDS011;72529;51.786;4.662;2024-02-26T05:19:55;9.35;;;9.33;;
82787;SDS011;72529;51.786;4.662;2024-02-26T05:22:20;9.64;;;9.54;;
82787;SDS011;72529;51.786;4.662;2024-02-26T05:24:46;10.07;;;9.97;;
82787;SDS011;72529;51.786;4.662;2024-02-26T05:27:11;9.87;;;9.85;;
82787;SDS011;72529;51.786;4.662;2024-02-26T05:29:37;9.54;;;9.54;;
82787;SDS011;72529;51.786;4.662;2024-02-26T05:32:03;9.73;;;9.72;;
82787;SDS011;72529;51.786;4.662;2024-02-26T05:34:29;9.60;;;9.49;;
82787;SDS011;72529;51.786;4.662;2024-02-26T05:36:55;9.87;;;9.85;;
82787;SDS011;72529;51.786;4.662;2024-02-26T05:39:21;9.50;;;9.50;;
82787;SDS011;72529;51.786;4.662;2024-02-26T05:41:46;9.63;;;9.57;;
82787;SDS011;72529;51.786;4.662;2024-02-26T05:44:12;10.15;;;9.96;;
82787;SDS011;72529;51.786;4.662;2024-02-26T05:46:37;9.82;;;9.81;;
82787;SDS011;72529;51.786;4.662;2024-02-26T05:49:02;10.29;;;10.08;;
82787;SDS011;72529;51.786;4.662;2024-02-26T05:51:28;9.91;;;9.78;;
82787;SDS011;72529;51.786;4.662;2024-02-26T05:53:53;9.68;;;9.50;;
82787;SDS011;72529;51.786;4.662;2024-02-26T05:56:20;10.53;;;10.40;;
82787;SDS011;72529;51.786;4.662;2024-02-26T05:58:46;9.77;;;9.74;;
82787;SDS011;72529;51.786;4.662;2024-02-26T06:01:12;9.71;;;9.67;;
82787;SDS011;72529;51.786;4.662;2024-02-26T06:03:38;9.80;;;9.72;;
82787;SDS011;72529;51.786;4.662;2024-02-26T06:06:04;9.89;;;9.78;;
82787;SDS011;72529;51.786;4.662;2024-02-26T06:08:30;10.30;;;10.11;;
82787;SDS011;72529;51.786;4.662;2024-02-26T06:10:56;9.96;;;9.81;;
82787;SDS011;72529;51.786;4.662;2024-02-26T06:13:21;9.53;;;9.38;;
82787;SDS011;72529;51.786;4.662;2024-02-26T06:15:47;9.82;;;9.68;;
82787;SDS011;72529;51.786;4.662;2024-02-26T06:18:13;9.63;;;9.60;;
82787;SDS011;72529;51.786;4.662;2024-02-26T06:20:39;9.96;;;9.96;;
82787;SDS011;72529;51.786;4.662;2024-02-26T06:23:05;9.96;;;9.96;;
82787;SDS011;72529;51.786;4.662;2024-02-26T06:25:30;10.23;;;10.06;;
82787;SDS011;72529;51.786;4.662;2024-02-26T06:27:56;10.28;;;10.19;;
82787;SDS011;72529;51.786;4.662;2024-02-26T06:30:21;10.01;;;10.01;;
82787;SDS011;72529;51.786;4.662;2024-02-26T06:32:47;10.34;;;10.21;;
82787;SDS011;72529;51.786;4.662;2024-02-26T06:35:12;10.69;;;10.60;;
82787;SDS011;72529;51.786;4.662;2024-02-26T06:37:38;10.14;;;10.11;;
82787;SDS011;72529;51.786;4.662;2024-02-26T06:40:03;10.79;;;10.70;;
82787;SDS011;72529;51.786;4.662;2024-02-26T06:42:31;11.11;;;10.85;;
82787;SDS011;72529;51.786;4.662;2024-02-26T06:44:57;10.25;;;10.11;;
82787;SDS011;72529;51.786;4.662;2024-02-26T06:47:23;10.40;;;10.22;;
82787;SDS011;72529;51.786;4.662;2024-02-26T06:49:48;10.65;;;10.49;;
82787;SDS011;72529;51.786;4.662;2024-02-26T06:52:14;10.60;;;10.49;;
82787;SDS011;72529;51.786;4.662;2024-02-26T06:54:39;10.20;;;10.11;;
82787;SDS011;72529;51.786;4.662;2024-02-26T06:57:05;9.88;;;9.72;;
82787;SDS011;72529;51.786;4.662;2024-02-26T06:59:30;10.14;;;10.08;;
82787;SDS011;72529;51.786;4.662;2024-02-26T07:01:56;11.13;;;11.02;;
82787;SDS011;72529;51.786;4.662;2024-02-26T07:04:21;11.18;;;11.08;;
82787;SDS011;72529;51.786;4.662;2024-02-26T07:06:46;11.06;;;10.81;;
82787;SDS011;72529;51.786;4.662;2024-02-26T07:09:12;11.06;;;10.94;;
82787;SDS011;72529;51.786;4.662;2024-02-26T07:11:38;11.43;;;11.33;;
82787;SDS011;72529;51.786;4.662;2024-02-26T07:14:07;11.53;;;11.36;;
82787;SDS011;72529;51.786;4.662;2024-02-26T07:16:33;12.04;;;11.86;;
82787;SDS011;72529;51.786;4.662;2024-02-26T07:18:59;11.82;;;11.64;;
82787;SDS011;72529;51.786;4.662;2024-02-26T07:21:24;11.85;;;11.72;;
82787;SDS011;72529;51.786;4.662;2024-02-26T07:23:50;12.54;;;12.30;;
82787;SDS011;72529;51.786;4.662;2024-02-26T07:26:15;12.54;;;12.33;;
82787;SDS011;72529;51.786;4.662;2024-02-26T07:28:42;13.24;;;13.12;;
82787;SDS011;72529;51.786;4.662;2024-02-26T07:31:07;14.79;;;14.51;;
82787;SDS011;72529;51.786;4.662;2024-02-26T07:33:33;15.24;;;14.91;;
82787;SDS011;72529;51.786;4.662;2024-02-26T07:35:58;15.23;;;14.89;;
82787;SDS011;72529;51.786;4.662;2024-02-26T07:38:24;16.20;;;15.71;;
82787;SDS011;72529;51.786;4.662;2024-02-26T07:40:49;15.53;;;15.26;;
82787;SDS011;72529;51.786;4.662;2024-02-26T07:43:15;15.95;;;15.56;;
82787;SDS011;72529;51.786;4.662;2024-02-26T07:45:40;17.02;;;16.54;;
82787;SDS011;72529;51.786;4.662;2024-02-26T07:48:06;17.43;;;16.75;;
82787;SDS011;72529;51.786;4.662;2024-02-26T07:50:32;17.23;;;16.75;;
82787;SDS011;72529;51.786;4.662;2024-02-26T07:52:57;16.68;;;16.37;;
82787;SDS011;72529;51.786;4.662;2024-02-26T07:55:23;17.28;;;16.87;;
82787;SDS011;72529;51.786;4.662;2024-02-26T07:57:49;17.69;;;17.10;;
82787;SDS011;72529;51.786;4.662;2024-02-26T08:00:14;18.75;;;18.19;;
82787;SDS011;72529;51.786;4.662;2024-02-26T08:02:42;18.10;;;17.65;;
82787;SDS011;72529;51.786;4.662;2024-02-26T08:05:09;18.45;;;18.01;;
82787;SDS011;72529;51.786;4.662;2024-02-26T08:07:34;19.87;;;19.37;;
82787;SDS011;72529;51.786;4.662;2024-02-26T08:10:00;20.82;;;20.00;;
82787;SDS011;72529;51.786;4.662;2024-02-26T08:12:25;21.45;;;20.68;;
82787;SDS011;72529;51.786;4.662;2024-02-26T08:14:51;21.00;;;20.42;;
82787;SDS011;72529;51.786;4.662;2024-02-26T08:17:16;21.77;;;21.30;;
82787;SDS011;72529;51.786;4.662;2024-02-26T08:19:41;22.54;;;21.79;;
82787;SDS011;72529;51.786;4.662;2024-02-26T08:22:07;24.08;;;22.81;;
82787;SDS011;72529;51.786;4.662;2024-02-26T08:24:41;24.78;;;23.75;;
82787;SDS011;72529;51.786;4.662;2024-02-26T08:27:09;24.80;;;24.03;;
82787;SDS011;72529;51.786;4.662;2024-02-26T08:29:35;25.18;;;24.31;;
82787;SDS011;72529;51.786;4.662;2024-02-26T08:32:00;26.21;;;25.32;;
82787;SDS011;72529;51.786;4.662;2024-02-26T08:34:26;26.53;;;25.77;;
82787;SDS011;72529;51.786;4.662;2024-02-26T08:36:51;27.36;;;26.59;;
82787;SDS011;72529;51.786;4.662;2024-02-26T08:39:17;27.84;;;26.84;;
82787;SDS011;72529;51.786;4.662;2024-02-26T08:41:43;28.99;;;27.91;;
82787;SDS011;72529;51.786;4.662;2024-02-26T08:44:09;28.91;;;27.98;;
82787;SDS011;72529;51.786;4.662;2024-02-26T08:46:35;30.10;;;28.86;;
82787;SDS011;72529;51.786;4.662;2024-02-26T08:49:00;29.78;;;28.59;;
82787;SDS011;72529;51.786;4.662;2024-02-26T08:51:26;30.80;;;29.67;;
82787;SDS011;72529;51.786;4.662;2024-02-26T08:53:51;29.96;;;28.86;;
82787;SDS011;72529;51.786;4.662;2024-02-26T08:56:17;29.47;;;28.74;;
82787;SDS011;72529;51.786;4.662;2024-02-26T08:58:45;30.54;;;29.56;;
82787;SDS011;72529;51.786;4.662;2024-02-26T09:01:13;29.62;;;28.73;;
82787;SDS011;72529;51.786;4.662;2024-02-26T09:03:42;28.84;;;28.02;;
82787;SDS011;72529;51.786;4.662;2024-02-26T09:06:08;29.15;;;28.04;;
82787;SDS011;72529;51.786;4.662;2024-02-26T09:08:33;28.13;;;27.45;;
82787;SDS011;72529;51.786;4.662;2024-02-26T09:11:01;28.10;;;27.53;;
82787;SDS011;72529;51.786;4.662;2024-02-26T09:13:26;26.43;;;25.87;;
82787;SDS011;72529;51.786;4.662;2024-02-26T09:15:52;27.11;;;26.41;;
82787;SDS011;72529;51.786;4.662;2024-02-26T09:18:17;26.19;;;25.47;;
82787;SDS011;72529;51.786;4.662;2024-02-26T09:20:42;24.63;;;24.15;;
82787;SDS011;72529;51.786;4.662;2024-02-26T09:23:08;24.56;;;23.90;;
82787;SDS011;72529;51.786;4.662;2024-02-26T09:25:34;23.65;;;23.07;;
82787;SDS011;72529;51.786;4.662;2024-02-26T09:28:00;23.22;;;22.59;;
82787;SDS011;72529;51.786;4.662;2024-02-26T09:30:26;22.34;;;21.62;;
82787;SDS011;72529;51.786;4.662;2024-02-26T09:32:51;22.31;;;21.80;;
82787;SDS011;72529;51.786;4.662;2024-02-26T09:35:17;21.50;;;21.04;;
82787;SDS011;72529;51.786;4.662;2024-02-26T09:37:42;20.37;;;20.11;;
82787;SDS011;72529;51.786;4.662;2024-02-26T09:40:09;18.81;;;18.63;;
82787;SDS011;72529;51.786;4.662;2024-02-26T09:42:42;19.01;;;18.59;;
82787;SDS011;72529;51.786;4.662;2024-02-26T09:45:10;18.10;;;17.83;;
82787;SDS011;72529;51.786;4.662;2024-02-26T09:47:44;17.63;;;17.42;;
82787;SDS011;72529;51.786;4.662;2024-02-26T09:50:12;17.36;;;17.00;;
82787;SDS011;72529;51.786;4.662;2024-02-26T09:52:40;17.60;;;17.18;;
82787;SDS011;72529;51.786;4.662;2024-02-26T09:55:07;17.33;;;17.02;;
82787;SDS011;72529;51.786;4.662;2024-02-26T09:57:35;16.92;;;16.63;;
82787;SDS011;72529;51.786;4.662;2024-02-26T10:00:02;16.71;;;16.49;;
82787;SDS011;72529;51.786;4.662;2024-02-26T10:02:33;15.93;;;15.65;;
82787;SDS011;72529;51.786;4.662;2024-02-26T10:05:02;15.73;;;15.54;;
82787;SDS011;72529;51.786;4.662;2024-02-26T10:07:30;15.42;;;15.14;;
82787;SDS011;72529;51.786;4.662;2024-02-26T10:09:55;14.84;;;14.62;;
82787;SDS011;72529;51.786;4.662;2024-02-26T10:12:21;14.59;;;14.30;;
82787;SDS011;72529;51.786;4.662;2024-02-26T10:14:47;14.40;;;14.10;;
82787;SDS011;72529;51.786;4.662;2024-02-26T10:17:12;14.05;;;13.85;;
82787;SDS011;72529;51.786;4.662;2024-02-26T10:19:38;13.67;;;13.34;;
82787;SDS011;72529;51.786;4.662;2024-02-26T10:22:03;13.32;;;13.02;;
82787;SDS011;72529;51.786;4.662;2024-02-26T10:24:29;12.43;;;12.27;;
82787;SDS011;72529;51.786;4.662;2024-02-26T10:26:59;12.39;;;12.18;;
82787;SDS011;72529;51.786;4.662;2024-02-26T10:29:25;12.65;;;12.42;;
82787;SDS011;72529;51.786;4.662;2024-02-26T10:31:51;11.75;;;11.63;;
82787;SDS011;72529;51.786;4.662;2024-02-26T10:34:17;12.40;;;12.22;;
82787;SDS011;72529;51.786;4.662;2024-02-26T10:36:43;11.74;;;11.56;;
82787;SDS011;72529;51.786;4.662;2024-02-26T10:39:09;11.07;;;11.00;;
82787;SDS011;72529;51.786;4.662;2024-02-26T10:41:37;10.81;;;10.66;;
82787;SDS011;72529;51.786;4.662;2024-02-26T10:44:03;11.03;;;10.78;;
82787;SDS011;72529;51.786;4.662;2024-02-26T10:46:29;11.40;;;11.18;;
82787;SDS011;72529;51.786;4.662;2024-02-26T10:48:55;10.90;;;10.75;;
82787;SDS011;72529;51.786;4.662;2024-02-26T10:51:27;10.80;;;10.67;;
82787;SDS011;72529;51.786;4.662;2024-02-26T10:53:55;10.49;;;10.34;;
82787;SDS011;72529;51.786;4.662;2024-02-26T10:56:27;10.76;;;10.68;;
82787;SDS011;72529;51.786;4.662;2024-02-26T10:58:56;10.57;;;10.46;;
82787;SDS011;72529;51.786;4.662;2024-02-26T11:01:23;10.43;;;10.23;;
82787;SDS011;72529;51.786;4.662;2024-02-26T11:03:51;10.90;;;10.78;;
82787;SDS011;72529;51.786;4.662;2024-02-26T11:06:21;10.07;;;9.90;;
82787;SDS011;72529;51.786;4.662;2024-02-26T11:08:50;10.11;;;9.92;;
82787;SDS011;72529;51.786;4.662;2024-02-26T11:11:17;10.80;;;10.68;;
82787;SDS011;72529;51.786;4.662;2024-02-26T11:13:46;32.56;;;32.06;;
82787;SDS011;72529;51.786;4.662;2024-02-26T11:16:20;37.08;;;36.76;;
82787;SDS011;72529;51.786;4.662;2024-02-26T11:18:47;14.84;;;14.84;;
82787;SDS011;72529;51.786;4.662;2024-02-26T11:21:16;15.66;;;15.66;;
82787;SDS011;72529;51.786;4.662;2024-02-26T11:23:45;21.53;;;21.53;;
82787;SDS011;72529;51.786;4.662;2024-02-26T11:26:11;16.31;;;16.25;;
82787;SDS011;72529;51.786;4.662;2024-02-26T11:28:41;14.47;;;14.46;;
82787;SDS011;72529;51.786;4.662;2024-02-26T11:31:09;13.31;;;13.09;;
82787;SDS011;72529;51.786;4.662;2024-02-26T11:33:37;13.51;;;13.18;;
82787;SDS011;72529;51.786;4.662;2024-02-26T11:36:10;16.94;;;16.80;;
82787;SDS011;72529;51.786;4.662;2024-02-26T11:38:37;14.28;;;14.26;;
82787;SDS011;72529;51.786;4.662;2024-02-26T11:41:03;13.62;;;13.51;;
82787;SDS011;72529;51.786;4.662;2024-02-26T11:46:29;11.56;;;11.36;;
82787;SDS011;72529;51.786;4.662;2024-02-26T11:48:59;12.00;;;11.72;;
82787;SDS011;72529;51.786;4.662;2024-02-26T11:51:45;11.27;;;11.18;;
82787;SDS011;72529;51.786;4.662;2024-02-26T12:02:51;11.50;;;11.26;;
82787;SDS011;72529;51.786;4.662;2024-02-26T12:05:26;11.62;;;11.48;;
82787;SDS011;72529;51.786;4.662;2024-02-26T12:08:01;12.65;;;12.59;;
82787;SDS011;72529;51.786;4.662;2024-02-26T12:10:31;12.29;;;12.25;;
82787;SDS011;72529;51.786;4.662;2024-02-26T12:13:15;12.69;;;12.41;;
82787;SDS011;72529;51.786;4.662;2024-02-26T12:15:46;14.08;;;13.95;;
82787;SDS011;72529;51.786;4.662;2024-02-26T12:18:21;12.64;;;12.61;;
82787;SDS011;72529;51.786;4.662;2024-02-26T12:20:57;12.81;;;12.54;;
82787;SDS011;72529;51.786;4.662;2024-02-26T12:23:26;10.98;;;10.96;;
82787;SDS011;72529;51.786;4.662;2024-02-26T12:25:53;12.21;;;12.03;;
82787;SDS011;72529;51.786;4.662;2024-02-26T12:28:23;12.30;;;12.12;;
82787;SDS011;72529;51.786;4.662;2024-02-26T12:30:53;16.74;;;16.58;;
82787;SDS011;72529;51.786;4.662;2024-02-26T12:33:19;13.91;;;13.73;;
82787;SDS011;72529;51.786;4.662;2024-02-26T12:35:45;13.83;;;13.47;;
82787;SDS011;72529;51.786;4.662;2024-02-26T12:38:14;11.63;;;11.42;;
82787;SDS011;72529;51.786;4.662;2024-02-26T12:40:40;11.25;;;11.05;;
82787;SDS011;72529;51.786;4.662;2024-02-26T12:43:06;11.35;;;11.25;;
82787;SDS011;72529;51.786;4.662;2024-02-26T12:45:38;11.89;;;11.80;;
82787;SDS011;72529;51.786;4.662;2024-02-26T12:48:05;12.66;;;12.42;;
82787;SDS011;72529;51.786;4.662;2024-02-26T12:50:31;12.26;;;12.18;;
82787;SDS011;72529;51.786;4.662;2024-02-26T12:52:57;12.04;;;11.82;;
82787;SDS011;72529;51.786;4.662;2024-02-26T12:55:23;11.72;;;11.68;;
82787;SDS011;72529;51.786;4.662;2024-02-26T12:57:51;12.03;;;11.95;;
82787;SDS011;72529;51.786;4.662;2024-02-26T13:00:18;13.35;;;13.18;;
82787;SDS011;72529;51.786;4.662;2024-02-26T13:02:51;12.33;;;12.11;;
82787;SDS011;72529;51.786;4.662;2024-02-26T13:05:19;12.85;;;12.78;;
82787;SDS011;72529;51.786;4.662;2024-02-26T13:07:45;12.95;;;12.84;;
82787;SDS011;72529;51.786;4.662;2024-02-26T13:10:15;13.63;;;13.44;;
82787;SDS011;72529;51.786;4.662;2024-02-26T13:12:46;12.61;;;12.50;;
82787;SDS011;72529;51.786;4.662;2024-02-26T13:15:16;12.79;;;12.71;;
82787;SDS011;72529;51.786;4.662;2024-02-26T13:17:46;14.18;;;13.91;;
82787;SDS011;72529;51.786;4.662;2024-02-26T13:20:13;12.66;;;12.54;;
82787;SDS011;72529;51.786;4.662;2024-02-26T13:22:50;16.32;;;16.02;;
82787;SDS011;72529;51.786;4.662;2024-02-26T13:25:20;13.41;;;13.27;;
82787;SDS011;72529;51.786;4.662;2024-02-26T13:27:46;15.79;;;15.62;;
82787;SDS011;72529;51.786;4.662;2024-02-26T13:30:11;11.01;;;10.90;;
82787;SDS011;72529;51.786;4.662;2024-02-26T13:32:40;11.18;;;11.15;;
82787;SDS011;72529;51.786;4.662;2024-02-26T13:37:37;12.87;;;12.86;;
82787;SDS011;72529;51.786;4.662;2024-02-26T13:40:04;11.98;;;11.98;;
82787;SDS011;72529;51.786;4.662;2024-02-26T13:42:34;10.93;;;10.89;;
82787;SDS011;72529;51.786;4.662;2024-02-26T13:45:03;13.06;;;13.02;;
82787;SDS011;72529;51.786;4.662;2024-02-26T13:47:33;12.42;;;12.33;;
82787;SDS011;72529;51.786;4.662;2024-02-26T13:49:59;11.48;;;11.45;;
82787;SDS011;72529;51.786;4.662;2024-02-26T13:52:25;13.81;;;13.81;;
82787;SDS011;72529;51.786;4.662;2024-02-26T13:54:51;28.31;;;28.30;;
82787;SDS011;72529;51.786;4.662;2024-02-26T13:57:17;15.99;;;15.89;;
82787;SDS011;72529;51.786;4.662;2024-02-26T13:59:44;14.43;;;14.40;;
82787;SDS011;72529;51.786;4.662;2024-02-26T14:02:09;15.18;;;15.10;;
82787;SDS011;72529;51.786;4.662;2024-02-26T14:04:36;15.12;;;15.00;;
82787;SDS011;72529;51.786;4.662;2024-02-26T14:07:02;14.41;;;14.41;;
82787;SDS011;72529;51.786;4.662;2024-02-26T14:09:28;13.78;;;13.78;;
82787;SDS011;72529;51.786;4.662;2024-02-26T14:11:54;15.12;;;15.12;;
82787;SDS011;72529;51.786;4.662;2024-02-26T14:14:19;14.73;;;14.73;;
82787;SDS011;72529;51.786;4.662;2024-02-26T14:16:45;14.32;;;14.32;;
82787;SDS011;72529;51.786;4.662;2024-02-26T14:19:10;11.86;;;11.86;;
82787;SDS011;72529;51.786;4.662;2024-02-26T14:21:36;11.33;;;11.33;;
82787;SDS011;72529;51.786;4.662;2024-02-26T14:24:02;18.88;;;18.70;;
82787;SDS011;72529;51.786;4.662;2024-02-26T14:26:28;18.58;;;18.27;;
82787;SDS011;72529;51.786;4.662;2024-02-26T14:28:54;15.04;;;14.83;;
82787;SDS011;72529;51.786;4.662;2024-02-26T14:31:19;21.48;;;21.04;;
82787;SDS011;72529;51.786;4.662;2024-02-26T14:33:45;12.73;;;12.68;;
82787;SDS011;72529;51.786;4.662;2024-02-26T14:36:11;14.82;;;14.77;;
82787;SDS011;72529;51.786;4.662;2024-02-26T14:38:37;13.68;;;13.67;;
82787;SDS011;72529;51.786;4.662;2024-02-26T14:41:04;10.80;;;10.62;;